createdAt,value
2023-03-19T00:07:47.038Z,82.25
2023-03-19T00:18:08.415Z,82.92
2023-03-19T00:28:30.214Z,82.70
2023-03-19T00:38:51.849Z,83.21
2023-03-19T00:49:13.374Z,83.13
2023-03-19T00:59:34.845Z,83.82
2023-03-19T01:09:56.374Z,84.22
2023-03-19T01:20:18.967Z,83.77
2023-03-19T01:30:41.083Z,84.11
2023-03-19T01:41:02.604Z,83.85
2023-03-19T01:51:26.223Z,84.36
2023-03-19T02:01:54.639Z,84.02
2023-03-19T02:12:17.589Z,84.57
2023-03-19T02:22:41.448Z,84.06
2023-03-19T02:33:02.900Z,84.01
2023-03-19T02:43:24.427Z,85.06
2023-03-19T02:53:45.987Z,84.53
2023-03-19T03:04:07.354Z,83.87
2023-03-19T03:14:28.816Z,84.71
2023-03-19T03:24:50.235Z,84.51
2023-03-19T03:35:11.692Z,84.35
2023-03-19T03:45:33.329Z,85.26
2023-03-19T03:55:54.964Z,85.54
2023-03-19T04:06:17.505Z,85.66
2023-03-19T04:16:39.325Z,85.44
2023-03-19T04:27:00.828Z,85.28
2023-03-19T04:37:22.337Z,85.15
2023-03-19T04:47:44.442Z,84.79
2023-03-19T04:58:06.111Z,86.91
2023-03-19T05:08:27.475Z,86.90
2023-03-19T05:18:49.612Z,87.31
2023-03-19T05:29:11.918Z,87.34
2023-03-19T05:39:33.491Z,87.01
2023-03-19T05:49:55.078Z,86.74
2023-03-19T06:00:17.573Z,86.77
2023-03-19T06:10:40.063Z,87.50
2023-03-19T06:21:01.741Z,87.10
2023-03-19T06:31:23.460Z,89.72
2023-03-19T06:41:44.873Z,86.65
2023-03-19T06:52:06.778Z,87.49
2023-03-19T07:02:28.138Z,88.48
2023-03-19T07:12:49.486Z,86.05
2023-03-19T07:23:10.987Z,85.34
2023-03-19T07:33:32.505Z,86.59
2023-03-19T07:43:53.849Z,83.93
2023-03-19T07:54:15.278Z,85.03
2023-03-19T08:04:37.296Z,84.03
2023-03-19T08:14:58.796Z,82.79
2023-03-19T08:25:20.414Z,84.54
2023-03-19T08:35:41.917Z,82.04
2023-03-19T08:46:04.150Z,81.36
2023-03-19T08:56:25.618Z,80.39
2023-03-19T09:06:51.093Z,81.06
2023-03-19T09:17:13.569Z,80.07
2023-03-19T09:27:34.997Z,80.34
2023-03-19T09:37:56.925Z,79.43
2023-03-19T09:48:20.775Z,79.77
2023-03-19T09:58:42.625Z,79.01
2023-03-19T10:09:16.326Z,78.21
2023-03-19T10:19:41.105Z,78.29
2023-03-19T10:30:02.708Z,78.08
2023-03-19T10:40:36.514Z,77.83
2023-03-19T10:50:59.740Z,77.70
2023-03-19T11:01:21.152Z,77.97
2023-03-19T11:11:51.152Z,78.39
2023-03-19T11:22:12.595Z,77.41
2023-03-19T11:32:54.075Z,76.77
2023-03-19T11:43:18.628Z,76.17
2023-03-19T11:53:49.192Z,76.00
2023-03-19T12:04:36.395Z,75.69
2023-03-19T12:14:57.749Z,75.87
2023-03-19T12:25:22.584Z,73.57
2023-03-19T12:35:46.079Z,71.51
2023-03-19T12:46:11.330Z,70.42
2023-03-19T12:56:38.195Z,70.58
2023-03-19T13:07:05.691Z,70.57
2023-03-19T13:17:45.760Z,70.08
2023-03-19T13:28:10.994Z,69.22
2023-03-19T13:38:44.534Z,67.73
2023-03-19T13:49:25.086Z,68.29
2023-03-19T13:59:50.776Z,67.44
2023-03-19T14:10:31.651Z,68.14
2023-03-19T14:20:56.764Z,69.50
2023-03-19T14:31:18.450Z,69.40
2023-03-19T14:41:43.111Z,67.63
2023-03-19T14:52:07.737Z,67.52
2023-03-19T15:02:37.310Z,67.65
2023-03-19T15:13:09.978Z,65.45
2023-03-19T15:23:31.931Z,65.77
2023-03-19T15:33:53.601Z,65.27
2023-03-19T15:44:20.832Z,66.70
2023-03-19T15:54:42.874Z,66.59
2023-03-19T16:05:21.104Z,65.22
2023-03-19T16:15:44.639Z,66.23
2023-03-19T16:26:15.580Z,66.84
2023-03-19T16:36:36.971Z,66.14
2023-03-19T16:46:58.334Z,66.63
2023-03-19T16:57:19.822Z,67.19
2023-03-19T17:07:41.972Z,68.99
2023-03-19T17:18:04.657Z,68.56
2023-03-19T17:28:26.045Z,69.19
2023-03-19T17:38:48.181Z,69.71
2023-03-19T17:49:19.021Z,70.70
2023-03-19T17:59:40.573Z,71.50
2023-03-19T18:10:01.916Z,72.05
2023-03-19T18:20:25.406Z,73.10
2023-03-19T18:30:46.882Z,74.57
2023-03-19T18:41:09.505Z,75.82
2023-03-19T18:51:31.177Z,77.02
2023-03-19T19:01:58.721Z,77.51
2023-03-19T19:12:20.451Z,77.76
2023-03-19T19:22:41.912Z,79.17
2023-03-19T19:33:04.645Z,78.23
2023-03-19T19:43:27.306Z,78.05
2023-03-19T19:53:49.151Z,77.81
2023-03-19T20:04:13.656Z,79.29
2023-03-19T20:14:35.051Z,77.89
2023-03-19T20:24:57.329Z,78.61
2023-03-19T20:35:20.504Z,78.86
2023-03-19T20:45:43.558Z,79.03
2023-03-19T20:56:06.349Z,78.55
2023-03-19T21:06:27.868Z,78.61
2023-03-19T21:16:49.297Z,78.45
2023-03-19T21:27:21.763Z,79.09
2023-03-19T21:37:43.625Z,79.56
2023-03-19T21:48:24.184Z,79.90
2023-03-19T21:58:45.575Z,79.08
2023-03-19T22:09:06.982Z,80.34
2023-03-19T22:19:29.197Z,79.24
2023-03-19T22:29:50.730Z,78.94
2023-03-19T22:40:13.734Z,79.34
2023-03-19T22:50:35.170Z,79.79
2023-03-19T23:00:56.964Z,79.90
2023-03-19T23:11:18.733Z,80.49
2023-03-19T23:21:40.146Z,79.79
2023-03-19T23:32:01.858Z,80.70
2023-03-19T23:42:27.834Z,81.54
2023-03-19T23:52:50.245Z,80.84
